Time;durP1;ratioP1;P1;durP2;ratioP2;P2;SDS_P1;SDS_P2;PMS_P1;PMS_P2;Temp;Humidity;BMP_temperature;BMP_pressure;BME280_temperature;BME280_humidity;BME280_pressure;Samples;Min_cycle;Max_cycle;Signal;HPM_P1;HPM_P2
2024/03/20 00:01:12;;;;;;;7.88;3.35;;;17.10;92.00;;;;;;5051587;28;20036;-72
2024/03/20 00:03:38;;;;;;;7.43;3.70;;;17.10;92.00;;;;;;5059360;28;20036;-73
2024/03/20 00:06:04;;;;;;;8.80;3.65;;;17.10;92.00;;;;;;5055684;28;20395;-73
2024/03/20 00:08:29;;;;;;;13.63;4.00;;;17.00;91.90;;;;;;5052891;28;20091;-72
2024/03/20 00:10:55;;;;;;;9.60;3.95;;;17.10;91.80;;;;;;5054553;28;20139;-73
2024/03/20 00:13:22;;;;;;;9.75;3.88;;;17.10;91.80;;;;;;5070938;28;20032;-73
2024/03/20 00:15:48;;;;;;;12.10;3.88;;;17.10;91.80;;;;;;5068211;28;20102;-72
2024/03/20 00:18:14;;;;;;;7.15;3.65;;;17.10;91.70;;;;;;5070351;28;20475;-73
2024/03/20 00:20:41;;;;;;;13.30;4.07;;;17.10;91.70;;;;;;5066402;28;20025;-72
2024/03/20 00:23:07;;;;;;;10.60;4.00;;;17.10;91.60;;;;;;5050900;28;20044;-72
2024/03/20 00:25:33;;;;;;;9.10;3.38;;;17.10;91.60;;;;;;5062050;28;20032;-72
2024/03/20 00:27:59;;;;;;;15.90;4.20;;;17.10;91.60;;;;;;5057445;28;20024;-72
2024/03/20 00:30:24;;;;;;;12.80;4.30;;;17.10;91.80;;;;;;5058293;28;20039;-72
2024/03/20 00:32:50;;;;;;;10.73;4.30;;;17.00;91.90;;;;;;5046878;28;20095;-72
2024/03/20 00:35:16;;;;;;;14.00;3.95;;;17.10;92.00;;;;;;5057190;28;20033;-72
2024/03/20 00:37:41;;;;;;;13.00;3.78;;;17.00;92.00;;;;;;5069850;28;20040;-72
2024/03/20 00:40:08;;;;;;;14.77;4.25;;;17.00;92.10;;;;;;5057146;28;20147;-72
2024/03/20 00:42:34;;;;;;;13.60;4.15;;;16.90;92.30;;;;;;5051038;28;20136;-72
2024/03/20 00:45:00;;;;;;;14.75;3.72;;;16.90;92.40;;;;;;5051139;28;20135;-72
2024/03/20 00:47:26;;;;;;;11.75;4.70;;;16.90;92.70;;;;;;5051395;28;20037;-72
2024/03/20 00:49:52;;;;;;;9.43;4.32;;;16.80;92.70;;;;;;5048751;28;20384;-72
2024/03/20 00:52:17;;;;;;;11.02;4.00;;;16.90;92.60;;;;;;5069100;28;20039;-72
2024/03/20 00:54:45;;;;;;;8.93;3.50;;;16.80;92.50;;;;;;5066918;28;20028;-72
2024/03/20 00:57:11;;;;;;;15.05;4.10;;;16.80;92.50;;;;;;5068479;28;20044;-72
2024/03/20 00:59:37;;;;;;;11.75;4.10;;;16.80;92.50;;;;;;5068038;28;20140;-73
2024/03/20 01:02:03;;;;;;;14.13;4.63;;;16.80;92.40;;;;;;5062272;28;20148;-73
2024/03/20 01:04:28;;;;;;;11.13;4.38;;;16.80;92.50;;;;;;5062942;28;20031;-73
2024/03/20 01:06:54;;;;;;;12.18;4.30;;;16.80;92.70;;;;;;5055746;28;20041;-73
2024/03/20 01:09:21;;;;;;;7.95;3.80;;;16.80;92.80;;;;;;5068014;28;20021;-73
2024/03/20 01:11:47;;;;;;;15.35;3.70;;;16.70;92.80;;;;;;5054357;28;20033;-73
2024/03/20 01:14:12;;;;;;;11.95;3.60;;;16.70;92.90;;;;;;5054249;28;20842;-73
2024/03/20 01:16:39;;;;;;;10.50;3.65;;;16.70;93.00;;;;;;5054118;28;20035;-73
2024/03/20 01:19:04;;;;;;;10.00;3.58;;;16.70;93.10;;;;;;5059477;28;20032;-73
2024/03/20 01:21:30;;;;;;;13.55;4.30;;;16.70;93.10;;;;;;5060097;28;20435;-72
2024/03/20 01:23:56;;;;;;;14.38;3.88;;;16.60;93.00;;;;;;5050497;28;20037;-73
2024/03/20 01:26:22;;;;;;;13.45;3.95;;;16.60;93.00;;;;;;5066467;28;20505;-73
2024/03/20 01:28:49;;;;;;;13.90;4.28;;;16.60;93.00;;;;;;5063582;28;20033;-72
2024/03/20 01:31:14;;;;;;;16.67;4.10;;;16.60;93.00;;;;;;5052593;28;20067;-72
2024/03/20 01:33:40;;;;;;;8.35;3.70;;;16.60;93.10;;;;;;5050169;28;20025;-73
2024/03/20 01:36:06;;;;;;;11.23;4.18;;;16.60;93.10;;;;;;5053729;28;20029;-72
2024/03/20 01:38:32;;;;;;;11.75;4.07;;;16.60;93.10;;;;;;5053107;28;20032;-72
2024/03/20 01:40:58;;;;;;;13.57;4.45;;;16.60;93.10;;;;;;5049870;28;20032;-72
2024/03/20 01:43:23;;;;;;;8.73;4.00;;;16.60;93.10;;;;;;5054577;28;20075;-72
2024/03/20 01:45:49;;;;;;;12.52;4.40;;;16.60;93.00;;;;;;5053448;28;20024;-73
2024/03/20 01:48:16;;;;;;;9.55;3.42;;;16.60;93.00;;;;;;5055904;28;20025;-72
2024/03/20 01:50:42;;;;;;;10.65;4.00;;;16.60;93.10;;;;;;5057424;28;20021;-73
2024/03/20 01:53:09;;;;;;;14.30;4.88;;;16.50;93.10;;;;;;5060457;28;20036;-72
2024/03/20 01:55:36;;;;;;;6.88;3.63;;;16.60;93.10;;;;;;5051125;28;20044;-72
2024/03/20 01:58:01;;;;;;;9.25;3.88;;;16.60;93.10;;;;;;5059670;28;20400;-72
2024/03/20 02:00:27;;;;;;;14.02;4.43;;;16.50;93.10;;;;;;5054960;28;20033;-72
2024/03/20 02:03:00;;;;;;;12.82;3.90;;;16.50;93.20;;;;;;5054874;28;20041;-72
2024/03/20 02:05:27;;;;;;;9.38;3.50;;;16.50;93.20;;;;;;5060575;28;20379;-72
2024/03/20 02:07:54;;;;;;;13.32;4.32;;;16.50;93.20;;;;;;5065383;28;20040;-72
2024/03/20 02:10:20;;;;;;;10.43;4.10;;;16.50;93.20;;;;;;5058583;28;20110;-72
2024/03/20 02:12:47;;;;;;;9.77;3.90;;;16.50;93.30;;;;;;5050101;28;20086;-73
2024/03/20 02:15:13;;;;;;;13.70;3.83;;;16.50;93.40;;;;;;5060330;28;20134;-72
2024/03/20 02:17:39;;;;;;;14.38;4.50;;;16.40;93.40;;;;;;5049141;28;20072;-72
2024/03/20 02:20:06;;;;;;;9.32;4.20;;;16.40;93.30;;;;;;5069398;28;20032;-72
2024/03/20 02:22:42;;;;;;;14.65;4.20;;;16.40;93.10;;;;;;5054953;28;20041;-73
2024/03/20 02:25:12;;;;;;;9.32;3.80;;;16.50;93.00;;;;;;5058290;28;20036;-72
2024/03/20 02:27:38;;;;;;;10.57;3.80;;;16.50;92.90;;;;;;5060309;28;20031;-73
2024/03/20 02:30:08;;;;;;;14.13;4.55;;;16.50;92.90;;;;;;5051992;28;20628;-72
2024/03/20 02:32:35;;;;;;;15.77;3.90;;;16.50;92.80;;;;;;5057698;28;20111;-72
2024/03/20 02:35:01;;;;;;;8.98;3.70;;;16.50;92.70;;;;;;5055145;28;20357;-73
2024/03/20 02:37:26;;;;;;;12.52;3.80;;;16.50;92.80;;;;;;5049238;28;20043;-73
2024/03/20 02:39:52;;;;;;;13.77;4.47;;;16.50;93.00;;;;;;5051054;28;20029;-73
2024/03/20 02:42:18;;;;;;;9.82;3.90;;;16.50;93.00;;;;;;5055917;28;20052;-72
2024/03/20 02:44:43;;;;;;;12.60;3.85;;;16.40;93.10;;;;;;5055293;28;20021;-72
2024/03/20 02:47:09;;;;;;;11.60;3.90;;;16.40;93.20;;;;;;5047531;28;20063;-73
2024/03/20 02:49:35;;;;;;;12.90;4.32;;;16.40;93.30;;;;;;5048048;28;20024;-72
2024/03/20 02:52:01;;;;;;;7.47;3.78;;;16.40;93.40;;;;;;5065224;28;20020;-73
2024/03/20 02:54:26;;;;;;;17.45;3.80;;;16.30;93.50;;;;;;5065061;28;20361;-73
2024/03/20 02:56:52;;;;;;;9.10;3.97;;;16.30;93.50;;;;;;5064000;28;20045;-73
2024/03/20 02:59:18;;;;;;;12.60;4.32;;;16.20;93.40;;;;;;5048452;28;20071;-72
2024/03/20 03:01:43;;;;;;;14.07;4.60;;;16.30;93.30;;;;;;5055390;28;20383;-72
2024/03/20 03:04:09;;;;;;;11.05;4.15;;;16.30;93.30;;;;;;5051305;28;20043;-73
2024/03/20 03:06:34;;;;;;;8.98;3.72;;;16.20;93.40;;;;;;5056814;28;20033;-73
2024/03/20 03:09:00;;;;;;;8.93;4.13;;;16.20;93.50;;;;;;5049426;28;21022;-73
2024/03/20 03:11:27;;;;;;;10.25;4.60;;;16.20;93.60;;;;;;5067564;28;20395;-72
2024/03/20 03:13:53;;;;;;;16.08;4.15;;;16.20;93.70;;;;;;5065401;28;20131;-73
2024/03/20 03:16:18;;;;;;;11.82;4.43;;;16.10;93.60;;;;;;5067871;28;20453;-73
2024/03/20 03:18:44;;;;;;;17.00;4.05;;;16.10;93.50;;;;;;5047157;28;20107;-72
2024/03/20 03:21:10;;;;;;;11.45;4.38;;;16.10;93.50;;;;;;5047971;28;20606;-72
2024/03/20 03:23:36;;;;;;;17.10;4.68;;;16.10;93.40;;;;;;5051241;28;20557;-72
2024/03/20 03:26:06;;;;;;;16.40;3.63;;;16.10;93.20;;;;;;5055026;28;20032;-72
2024/03/20 03:28:31;;;;;;;11.23;3.83;;;16.20;93.10;;;;;;5047867;28;20091;-72
2024/03/20 03:31:00;;;;;;;12.40;3.63;;;16.20;92.90;;;;;;5047415;28;20025;-72
2024/03/20 03:33:26;;;;;;;9.57;4.10;;;16.20;92.80;;;;;;5047906;28;20033;-72
2024/03/20 03:36:02;;;;;;;11.93;4.20;;;16.30;92.70;;;;;;5047230;28;20879;-72
2024/03/20 03:38:29;;;;;;;16.75;4.60;;;16.20;92.70;;;;;;5055464;28;20024;-72
2024/03/20 03:41:01;;;;;;;9.43;4.32;;;16.20;92.80;;;;;;5055563;28;20029;-72
2024/03/20 03:43:28;;;;;;;10.65;4.82;;;16.20;92.70;;;;;;5055000;28;20453;-72
2024/03/20 03:45:54;;;;;;;10.10;4.35;;;16.20;92.70;;;;;;5052422;28;20036;-72
2024/03/20 03:48:20;;;;;;;9.85;4.15;;;16.20;92.60;;;;;;5056189;28;20511;-72
2024/03/20 03:50:49;;;;;;;11.25;4.30;;;16.20;92.60;;;;;;5062278;28;20032;-72
2024/03/20 03:53:15;;;;;;;14.13;4.78;;;16.30;92.60;;;;;;5057806;28;20028;-73
2024/03/20 03:55:41;;;;;;;13.15;4.75;;;16.20;92.70;;;;;;5056240;28;20452;-72
2024/03/20 03:58:06;;;;;;;13.75;5.03;;;16.20;92.80;;;;;;5066047;28;20115;-72
2024/03/20 04:00:32;;;;;;;9.75;4.28;;;16.10;92.70;;;;;;5056728;28;20507;-72
2024/03/20 04:02:57;;;;;;;15.88;4.60;;;16.10;92.70;;;;;;5051962;28;20484;-73
2024/03/20 04:05:24;;;;;;;18.80;5.80;;;16.20;92.70;;;;;;5063644;28;20020;-73
2024/03/20 04:07:52;;;;;;;10.15;4.60;;;16.20;92.60;;;;;;5052105;28;20087;-72
2024/03/20 04:10:18;;;;;;;15.40;4.63;;;16.20;92.50;;;;;;5062063;28;20060;-73
2024/03/20 04:12:44;;;;;;;11.63;4.03;;;16.20;92.50;;;;;;5065428;28;20060;-73
2024/03/20 04:15:10;;;;;;;14.18;4.90;;;16.20;92.50;;;;;;5052659;28;20032;-72
2024/03/20 04:17:35;;;;;;;15.55;4.68;;;16.20;92.50;;;;;;5050678;28;20036;-72
2024/03/20 04:20:01;;;;;;;14.48;5.07;;;16.10;92.60;;;;;;5052044;28;20035;-72
2024/03/20 04:22:27;;;;;;;12.05;4.88;;;16.10;92.80;;;;;;5053506;28;20052;-72
2024/03/20 04:24:53;;;;;;;12.43;4.65;;;16.10;92.80;;;;;;5063145;28;20045;-72
2024/03/20 04:27:19;;;;;;;16.42;5.53;;;16.10;92.90;;;;;;5055471;28;20024;-73
2024/03/20 04:29:45;;;;;;;14.60;4.82;;;16.00;92.90;;;;;;5060870;28;20059;-72
2024/03/20 04:32:11;;;;;;;13.65;5.38;;;16.00;93.00;;;;;;5060643;28;20035;-72
2024/03/20 04:34:37;;;;;;;16.33;6.10;;;16.00;93.10;;;;;;5061077;28;20033;-72
2024/03/20 04:37:02;;;;;;;20.13;5.20;;;16.00;93.10;;;;;;5058130;28;20134;-72
2024/03/20 04:39:29;;;;;;;14.00;5.80;;;16.00;93.10;;;;;;5066176;28;20029;-72
2024/03/20 04:41:57;;;;;;;13.15;4.75;;;15.90;93.10;;;;;;5061031;28;20396;-73
2024/03/20 04:44:24;;;;;;;16.45;4.47;;;15.90;93.10;;;;;;5058981;28;20131;-72
2024/03/20 04:46:50;;;;;;;14.50;4.95;;;15.90;93.30;;;;;;5063523;28;20375;-73
2024/03/20 04:49:15;;;;;;;10.90;4.60;;;15.80;93.30;;;;;;5059274;28;20121;-73
2024/03/20 04:51:41;;;;;;;13.88;5.15;;;15.80;93.30;;;;;;5062635;28;20115;-73
2024/03/20 04:54:06;;;;;;;13.63;4.70;;;15.80;93.40;;;;;;5054427;28;20029;-73
2024/03/20 04:56:32;;;;;;;12.70;5.30;;;15.80;93.30;;;;;;5062543;28;20135;-73
2024/03/20 04:58:58;;;;;;;13.68;4.65;;;15.80;93.30;;;;;;5068775;28;20032;-73
2024/03/20 05:01:24;;;;;;;13.48;4.70;;;15.80;93.30;;;;;;5067108;28;20439;-73
2024/03/20 05:03:49;;;;;;;12.18;5.05;;;15.80;93.20;;;;;;5058696;28;20063;-73
2024/03/20 05:06:15;;;;;;;16.33;4.57;;;15.80;93.10;;;;;;5068434;28;20483;-73
2024/03/20 05:08:40;;;;;;;15.00;5.18;;;15.90;93.10;;;;;;5054842;28;20064;-73
2024/03/20 05:11:06;;;;;;;12.95;5.10;;;15.90;93.20;;;;;;5069531;28;20063;-73
2024/03/20 05:13:32;;;;;;;17.63;5.55;;;15.90;93.10;;;;;;5067503;28;20109;-73
2024/03/20 05:15:59;;;;;;;15.82;5.35;;;15.80;93.00;;;;;;5069785;28;20028;-73
2024/03/20 05:18:24;;;;;;;10.00;5.07;;;15.80;93.00;;;;;;5063198;28;20098;-73
2024/03/20 05:20:50;;;;;;;14.88;5.10;;;15.80;93.00;;;;;;5048872;28;20439;-73
2024/03/20 05:23:15;;;;;;;22.50;5.32;;;15.80;92.90;;;;;;5048520;28;20041;-73
2024/03/20 05:25:41;;;;;;;12.32;5.65;;;15.80;92.90;;;;;;5050121;28;20033;-73
2024/03/20 05:28:07;;;;;;;10.45;5.43;;;15.80;92.90;;;;;;5054536;28;20359;-72
2024/03/20 05:30:32;;;;;;;14.13;5.72;;;15.80;92.90;;;;;;5059486;28;20032;-72
2024/03/20 05:32:58;;;;;;;17.30;5.43;;;15.80;92.90;;;;;;5066453;28;20058;-72
2024/03/20 05:35:25;;;;;;;12.70;5.78;;;15.80;92.90;;;;;;5057872;28;20035;-72
2024/03/20 05:37:50;;;;;;;11.05;5.05;;;15.80;92.90;;;;;;5054778;28;20041;-72
2024/03/20 05:40:17;;;;;;;14.68;5.43;;;15.80;92.80;;;;;;5060451;28;20555;-73
2024/03/20 05:42:42;;;;;;;12.43;5.35;;;15.80;92.80;;;;;;5060460;28;20067;-72
2024/03/20 05:45:08;;;;;;;15.25;5.32;;;15.80;92.80;;;;;;5057791;28;20052;-74
2024/03/20 05:47:34;;;;;;;16.27;6.10;;;15.80;92.70;;;;;;5054169;28;20059;-74
2024/03/20 05:50:01;;;;;;;14.18;5.35;;;15.80;92.80;;;;;;5063138;28;20031;-72
2024/03/20 05:52:26;;;;;;;18.13;9.07;;;15.80;92.80;;;;;;5062301;28;20123;-74
2024/03/20 05:54:52;;;;;;;10.30;5.95;;;15.80;92.80;;;;;;5067431;28;20158;-74
2024/03/20 05:57:18;;;;;;;12.20;5.07;;;15.80;92.90;;;;;;5048321;28;20041;-74
2024/03/20 05:59:44;;;;;;;13.35;6.35;;;15.70;92.90;;;;;;5048158;28;20480;-75
2024/03/20 06:02:09;;;;;;;13.00;5.05;;;15.80;92.90;;;;;;5048745;28;20033;-74
2024/03/20 06:04:35;;;;;;;11.25;5.20;;;15.70;92.80;;;;;;5054160;28;20384;-75
2024/03/20 06:07:04;;;;;;;11.85;5.47;;;15.80;92.70;;;;;;5060708;28;20383;-75
2024/03/20 06:09:32;;;;;;;13.38;5.75;;;15.80;92.70;;;;;;5049587;28;20052;-75
2024/03/20 06:11:58;;;;;;;11.18;6.10;;;15.80;92.60;;;;;;5050278;28;20507;-75
2024/03/20 06:14:25;;;;;;;12.75;5.80;;;15.80;92.60;;;;;;5051668;28;20029;-75
2024/03/20 06:16:51;;;;;;;16.48;5.72;;;15.80;92.60;;;;;;5052315;28;20025;-75
2024/03/20 06:19:16;;;;;;;17.65;5.65;;;15.80;92.60;;;;;;5064063;28;20035;-76
2024/03/20 06:21:42;;;;;;;13.68;5.30;;;15.90;92.70;;;;;;5056945;28;20112;-75
2024/03/20 06:24:08;;;;;;;15.10;5.78;;;15.80;92.60;;;;;;5061048;28;20046;-75
2024/03/20 06:26:34;;;;;;;12.50;5.15;;;15.80;92.60;;;;;;5045549;28;20027;-75
2024/03/20 06:28:59;;;;;;;15.73;6.13;;;15.80;92.60;;;;;;5052788;28;20036;-75
2024/03/20 06:31:25;;;;;;;16.50;5.13;;;15.90;92.50;;;;;;5048599;28;20094;-75
2024/03/20 06:33:51;;;;;;;15.45;5.65;;;15.90;92.50;;;;;;5057319;28;20033;-76
2024/03/20 06:36:17;;;;;;;13.80;5.68;;;15.90;92.40;;;;;;5060724;28;20028;-74
2024/03/20 06:38:43;;;;;;;14.95;5.85;;;15.90;92.60;;;;;;5058378;28;20036;-75
2024/03/20 06:41:09;;;;;;;16.60;6.22;;;15.90;92.30;;;;;;5063147;28;20135;-76
2024/03/20 06:43:35;;;;;;;13.05;5.85;;;16.00;92.30;;;;;;5060434;28;20033;-76
2024/03/20 06:46:01;;;;;;;17.00;6.20;;;15.90;92.30;;;;;;5047639;28;20102;-76
2024/03/20 06:48:28;;;;;;;15.43;6.53;;;15.90;92.30;;;;;;5060632;28;20032;-75
2024/03/20 06:50:58;;;;;;;14.65;6.72;;;15.90;92.30;;;;;;5060170;28;20028;-74
2024/03/20 06:53:25;;;;;;;17.42;6.38;;;15.90;92.40;;;;;;5055756;28;20028;-75
2024/03/20 06:55:53;;;;;;;16.30;6.30;;;15.90;92.40;;;;;;5051608;28;20052;-74
2024/03/20 06:58:20;;;;;;;18.92;5.68;;;15.90;92.40;;;;;;5057397;28;20427;-74
2024/03/20 07:00:46;;;;;;;15.93;5.60;;;15.90;92.50;;;;;;5060058;28;20064;-74
2024/03/20 07:03:13;;;;;;;19.00;6.38;;;15.90;92.50;;;;;;5047113;28;20446;-75
2024/03/20 07:05:39;;;;;;;15.30;6.07;;;15.90;92.40;;;;;;5056788;28;20071;-74
2024/03/20 07:08:05;;;;;;;14.25;6.25;;;16.00;92.40;;;;;;5048862;28;20053;-75
2024/03/20 07:10:31;;;;;;;15.65;5.68;;;16.00;92.40;;;;;;5049467;28;20040;-74
2024/03/20 07:12:57;;;;;;;17.02;6.10;;;15.90;92.40;;;;;;5051659;28;20781;-73
2024/03/20 07:15:23;;;;;;;20.27;6.13;;;16.00;92.40;;;;;;5064984;28;20032;-72
2024/03/20 07:17:48;;;;;;;15.27;6.38;;;16.00;92.40;;;;;;5060617;28;20392;-73
2024/03/20 07:20:14;;;;;;;17.55;6.82;;;16.00;92.40;;;;;;5052275;28;20510;-73
2024/03/20 07:22:40;;;;;;;16.67;6.10;;;16.00;92.40;;;;;;5050795;28;20047;-73
2024/03/20 07:25:07;;;;;;;14.30;6.50;;;16.00;92.40;;;;;;5057886;28;20029;-71
2024/03/20 07:27:33;;;;;;;24.25;6.68;;;15.90;92.40;;;;;;5052470;28;20479;-71
2024/03/20 07:30:01;;;;;;;12.55;6.35;;;15.90;92.50;;;;;;5056038;28;20044;-71
2024/03/20 07:32:27;;;;;;;16.55;6.32;;;15.90;92.50;;;;;;5056672;28;20032;-72
2024/03/20 07:34:53;;;;;;;13.70;5.93;;;16.00;92.50;;;;;;5059876;28;20441;-72
2024/03/20 07:37:18;;;;;;;17.42;7.00;;;16.00;92.50;;;;;;5053199;28;20020;-72
2024/03/20 07:39:44;;;;;;;18.17;7.20;;;16.00;92.50;;;;;;5060923;28;20459;-72
2024/03/20 07:42:10;;;;;;;24.52;7.95;;;16.00;92.60;;;;;;5058473;28;20499;-72
2024/03/20 07:44:36;;;;;;;18.35;6.30;;;16.00;92.70;;;;;;5065047;28;20032;-72
2024/03/20 07:47:03;;;;;;;13.77;6.68;;;15.90;92.80;;;;;;5064048;28;20111;-72
2024/03/20 07:49:29;;;;;;;13.45;5.97;;;15.90;92.80;;;;;;5061143;28;20120;-73
2024/03/20 07:51:56;;;;;;;20.45;7.00;;;15.90;93.10;;;;;;5050640;28;20119;-72
2024/03/20 07:54:24;;;;;;;16.00;6.70;;;15.90;93.00;;;;;;5057070;28;20085;-73
2024/03/20 07:56:53;;;;;;;15.77;6.93;;;15.80;93.00;;;;;;5056275;28;20067;-71
2024/03/20 07:59:20;;;;;;;16.13;6.95;;;15.90;93.20;;;;;;5054784;28;21435;-72
2024/03/20 08:01:46;;;;;;;17.52;7.68;;;15.90;93.20;;;;;;5063641;28;20029;-73
2024/03/20 08:04:12;;;;;;;17.85;7.05;;;15.90;93.20;;;;;;5060494;28;20043;-75
2024/03/20 08:06:38;;;;;;;16.80;6.90;;;15.90;93.20;;;;;;5067039;28;20111;-72
2024/03/20 08:09:05;;;;;;;20.40;7.45;;;15.90;93.10;;;;;;5061000;28;20048;-72
2024/03/20 08:11:31;;;;;;;18.63;6.65;;;16.00;93.20;;;;;;5061692;28;20043;-72
2024/03/20 08:13:57;;;;;;;20.77;7.20;;;15.90;93.20;;;;;;5066676;28;20032;-72
2024/03/20 08:16:22;;;;;;;13.50;7.13;;;16.00;93.20;;;;;;5052876;28;20109;-73
2024/03/20 08:18:48;;;;;;;19.08;7.32;;;16.00;93.20;;;;;;5070757;28;20129;-72
2024/03/20 08:21:15;;;;;;;18.77;7.22;;;16.10;93.20;;;;;;5053016;28;20036;-72
2024/03/20 08:23:41;;;;;;;21.42;6.55;;;16.10;93.30;;;;;;5049387;28;20407;-72
2024/03/20 08:26:07;;;;;;;20.73;7.97;;;16.10;93.30;;;;;;5050356;28;20196;-73
2024/03/20 08:28:33;;;;;;;33.00;9.88;;;16.10;93.40;;;;;;5055601;28;20039;-72
2024/03/20 08:30:59;;;;;;;25.38;8.40;;;16.00;93.50;;;;;;5057552;28;20036;-73
2024/03/20 08:33:25;;;;;;;16.67;7.03;;;16.00;93.50;;;;;;5055573;28;20036;-72
2024/03/20 08:36:00;;;;;;;21.55;7.00;;;16.00;93.60;;;;;;5065956;28;20039;-72
2024/03/20 08:38:27;;;;;;;20.50;8.18;;;16.00;93.60;;;;;;5063684;28;20045;-72
2024/03/20 08:40:53;;;;;;;18.83;8.48;;;16.00;93.70;;;;;;5060429;28;20032;-72
2024/03/20 08:43:22;;;;;;;19.52;7.60;;;16.00;93.80;;;;;;5063711;28;20044;-72
2024/03/20 08:45:47;;;;;;;14.70;6.15;;;15.90;93.90;;;;;;5059422;28;20052;-72
2024/03/20 08:48:13;;;;;;;16.08;6.97;;;15.90;94.00;;;;;;5063814;28;20488;-72
2024/03/20 08:50:40;;;;;;;17.38;6.30;;;15.90;94.10;;;;;;5070873;28;20466;-72
2024/03/20 08:53:07;;;;;;;16.20;6.63;;;15.90;94.20;;;;;;5065404;28;20047;-72
2024/03/20 08:55:33;;;;;;;19.77;6.45;;;15.90;94.30;;;;;;5057031;28;20036;-72
2024/03/20 08:57:59;;;;;;;16.27;6.93;;;15.80;94.40;;;;;;5055493;28;20038;-74
2024/03/20 09:00:26;;;;;;;17.88;7.30;;;15.80;94.50;;;;;;5052173;28;20037;-72
2024/03/20 09:02:51;;;;;;;16.10;7.32;;;15.80;94.60;;;;;;5054189;28;20033;-72
2024/03/20 09:05:17;;;;;;;18.65;7.03;;;15.80;94.70;;;;;;5058919;28;20490;-72
2024/03/20 09:07:44;;;;;;;18.50;7.93;;;15.70;94.70;;;;;;5054939;28;20411;-72
2024/03/20 09:10:10;;;;;;;20.38;7.47;;;15.80;94.80;;;;;;5058281;28;20479;-73
2024/03/20 09:12:36;;;;;;;27.85;9.13;;;15.70;94.90;;;;;;5066643;28;20039;-79
2024/03/20 09:15:02;;;;;;;21.40;8.60;;;15.70;94.90;;;;;;5066496;28;20028;-72
2024/03/20 09:17:28;;;;;;;17.83;6.20;;;15.70;94.90;;;;;;5055182;28;20492;-72
2024/03/20 09:19:54;;;;;;;17.73;6.85;;;15.70;95.00;;;;;;5069231;28;20036;-74
2024/03/20 09:22:20;;;;;;;24.08;8.73;;;15.70;95.00;;;;;;5062832;28;20134;-72
2024/03/20 09:24:46;;;;;;;19.85;7.20;;;15.70;95.10;;;;;;5058689;28;20051;-72
2024/03/20 09:27:11;;;;;;;16.15;6.18;;;15.80;95.20;;;;;;5052601;28;20040;-73
2024/03/20 09:29:37;;;;;;;21.88;7.28;;;15.70;95.20;;;;;;5054534;28;20029;-69
2024/03/20 09:32:04;;;;;;;20.95;7.10;;;15.80;95.20;;;;;;5057173;28;20029;-70
2024/03/20 09:34:30;;;;;;;13.60;5.28;;;15.80;95.30;;;;;;5048805;28;20492;-69
2024/03/20 09:36:56;;;;;;;20.67;6.57;;;15.80;95.30;;;;;;5057643;28;20029;-69
2024/03/20 09:39:23;;;;;;;16.63;7.03;;;15.90;95.30;;;;;;5070107;28;20427;-69
2024/03/20 09:41:48;;;;;;;18.90;5.93;;;15.90;95.30;;;;;;5060656;28;20107;-70
2024/03/20 09:44:15;;;;;;;10.93;6.78;;;15.90;95.40;;;;;;5051386;28;20157;-70
2024/03/20 09:46:41;;;;;;;16.10;6.43;;;15.90;95.30;;;;;;5063320;28;20070;-70
2024/03/20 09:49:08;;;;;;;24.88;7.78;;;15.90;95.30;;;;;;5049676;28;20466;-70
2024/03/20 09:51:35;;;;;;;17.13;6.70;;;16.00;95.30;;;;;;5063588;28;20373;-70
2024/03/20 09:54:01;;;;;;;13.35;6.82;;;16.00;95.40;;;;;;5051282;28;20033;-70
2024/03/20 09:56:29;;;;;;;13.82;7.28;;;16.10;95.30;;;;;;5060138;28;20381;-71
2024/03/20 09:58:55;;;;;;;21.50;7.13;;;16.10;95.30;;;;;;5049540;28;20040;-72
2024/03/20 10:01:22;;;;;;;14.80;6.40;;;16.10;95.30;;;;;;5054542;28;20036;-72
2024/03/20 10:03:55;;;;;;;15.15;5.43;;;16.20;95.40;;;;;;5054776;28;20369;-72
2024/03/20 10:06:31;;;;;;;19.10;5.97;;;16.20;95.40;;;;;;5066987;28;20105;-73
2024/03/20 10:08:57;;;;;;;16.83;5.88;;;16.30;95.40;;;;;;5064516;28;20040;-73
2024/03/20 10:11:23;;;;;;;15.07;7.15;;;16.30;95.40;;;;;;5057415;28;20029;-73
2024/03/20 10:13:49;;;;;;;18.20;6.43;;;16.30;95.40;;;;;;5052571;28;20029;-73
2024/03/20 10:16:16;;;;;;;18.55;7.03;;;16.30;95.40;;;;;;5058473;28;20494;-73
2024/03/20 10:18:44;;;;;;;10.50;5.03;;;16.40;95.40;;;;;;5059299;28;20033;-73
2024/03/20 10:21:10;;;;;;;16.52;6.38;;;16.40;95.40;;;;;;5049058;28;20025;-73
2024/03/20 10:23:39;;;;;;;9.75;4.60;;;16.40;95.30;;;;;;5061281;28;20040;-72
2024/03/20 10:26:05;;;;;;;13.52;4.95;;;16.40;95.40;;;;;;5057095;28;20033;-73
2024/03/20 10:28:31;;;;;;;19.85;6.13;;;16.40;95.50;;;;;;5055948;28;20032;-73
2024/03/20 10:31:08;;;;;;;18.17;5.35;;;16.40;95.50;;;;;;5057869;28;20054;-73
2024/03/20 10:33:34;;;;;;;17.80;6.80;;;16.40;95.50;;;;;;5060629;28;20040;-73
2024/03/20 10:36:01;;;;;;;17.25;6.47;;;16.40;95.50;;;;;;5061295;28;20068;-73
2024/03/20 10:38:28;;;;;;;24.02;6.75;;;16.40;95.60;;;;;;5061287;28;20601;-73
2024/03/20 10:40:55;;;;;;;17.83;4.28;;;16.50;95.70;;;;;;5050208;28;20124;-71
2024/03/20 10:43:23;;;;;;;14.80;4.60;;;16.50;95.70;;;;;;5061088;28;20134;-71
2024/03/20 10:45:49;;;;;;;15.48;6.13;;;16.40;95.70;;;;;;5066938;28;20031;-71
2024/03/20 10:48:20;;;;;;;16.33;5.90;;;16.50;95.70;;;;;;5065069;28;20032;-71
2024/03/20 10:50:48;;;;;;;22.20;6.03;;;16.50;95.80;;;;;;5057410;28;20056;-71
2024/03/20 10:53:15;;;;;;;21.90;6.38;;;16.50;95.80;;;;;;5066801;28;20028;-71
2024/03/20 10:55:45;;;;;;;20.90;6.30;;;16.60;95.80;;;;;;5051136;28;20492;-71
2024/03/20 10:58:15;;;;;;;10.52;5.47;;;16.60;95.80;;;;;;5061971;28;20495;-70
2024/03/20 11:00:45;;;;;;;27.33;6.00;;;16.60;95.70;;;;;;5055965;28;20115;-71
2024/03/20 11:03:36;;;;;;;11.18;5.07;;;16.60;95.90;;;;;;5053645;28;20040;-71
2024/03/20 11:06:23;;;;;;;9.98;4.25;;;16.60;96.00;;;;;;5063617;28;20055;-71
2024/03/20 11:08:53;;;;;;;10.23;4.93;;;16.60;96.00;;;;;;5067799;28;20041;-71
2024/03/20 11:11:18;;;;;;;16.75;6.38;;;16.60;96.00;;;;;;5050255;28;20108;-71
2024/03/20 11:13:47;;;;;;;5.35;3.28;;;16.60;96.10;;;;;;5053063;28;20567;-70
2024/03/20 11:16:21;;;;;;;3.90;2.90;;;16.60;96.10;;;;;;5056791;28;20037;-70
2024/03/20 11:18:52;;;;;;;4.97;3.38;;;16.50;96.20;;;;;;5047133;28;20029;-71
2024/03/20 11:21:20;;;;;;;14.10;5.82;;;16.60;96.30;;;;;;5052917;28;20484;-71
2024/03/20 11:23:47;;;;;;;16.08;4.97;;;16.50;96.30;;;;;;5052501;28;20049;-71
2024/03/20 11:26:12;;;;;;;20.27;6.30;;;16.50;96.40;;;;;;5058333;28;20074;-71
2024/03/20 11:28:41;;;;;;;8.82;4.63;;;16.60;96.50;;;;;;5048102;28;20151;-71
2024/03/20 11:31:08;;;;;;;11.30;4.70;;;16.60;96.30;;;;;;5059959;28;20050;-71
2024/03/20 11:33:33;;;;;;;20.63;9.00;;;16.50;96.40;;;;;;5049098;28;20922;-71
2024/03/20 11:36:00;;;;;;;16.75;6.55;;;16.50;96.40;;;;;;5056140;28;20032;-71
2024/03/20 11:38:29;;;;;;;16.77;6.07;;;16.60;96.30;;;;;;5050945;28;20126;-71
2024/03/20 11:40:59;;;;;;;17.70;7.35;;;16.50;96.50;;;;;;5058624;28;20028;-71
2024/03/20 11:43:24;;;;;;;11.65;5.75;;;16.50;96.50;;;;;;5051272;28;20044;-71
2024/03/20 11:45:50;;;;;;;7.80;4.47;;;16.50;96.60;;;;;;5060965;28;20033;-72
2024/03/20 11:48:16;;;;;;;12.63;6.25;;;16.50;96.70;;;;;;5062737;28;20036;-71
2024/03/20 11:50:42;;;;;;;5.28;3.05;;;16.60;96.70;;;;;;5058010;28;20035;-71
2024/03/20 11:53:09;;;;;;;22.05;9.45;;;16.70;96.90;;;;;;5048120;28;20039;-71
2024/03/20 11:55:36;;;;;;;8.23;4.13;;;16.70;96.70;;;;;;5047548;28;20037;-72
2024/03/20 11:58:03;;;;;;;28.42;10.52;;;16.80;96.60;;;;;;5051072;28;20135;-70
2024/03/20 12:00:32;;;;;;;10.38;5.07;;;16.70;96.60;;;;;;5059235;28;20036;-70
2024/03/20 12:02:59;;;;;;;16.73;7.15;;;16.80;96.60;;;;;;5057403;28;20051;-70
2024/03/20 12:05:27;;;;;;;14.25;6.93;;;16.90;96.40;;;;;;5062291;28;20032;-70
2024/03/20 12:08:00;;;;;;;17.35;7.53;;;16.80;96.40;;;;;;5052922;28;20033;-70
2024/03/20 12:10:43;;;;;;;24.27;7.43;;;16.80;96.60;;;;;;5052672;28;20460;-70
2024/03/20 12:13:12;;;;;;;6.53;3.70;;;16.90;96.70;;;;;;5070414;28;20040;-69
2024/03/20 12:15:41;;;;;;;15.35;6.72;;;16.90;96.50;;;;;;5056698;28;20024;-70
2024/03/20 12:18:08;;;;;;;14.10;6.65;;;16.90;96.50;;;;;;5070124;28;20111;-69
2024/03/20 12:20:34;;;;;;;17.05;5.65;;;16.90;96.50;;;;;;5062624;28;20036;-69
2024/03/20 12:23:03;;;;;;;12.57;4.90;;;16.90;96.60;;;;;;5053366;28;20101;-69
2024/03/20 12:25:29;;;;;;;27.80;8.48;;;16.90;96.70;;;;;;5060898;28;20120;-69
2024/03/20 12:27:55;;;;;;;10.45;5.28;;;17.00;96.70;;;;;;5057739;28;20166;-70
2024/03/20 12:30:20;;;;;;;18.88;9.13;;;17.00;96.80;;;;;;5056609;28;20033;-70
2024/03/20 12:32:47;;;;;;;13.98;4.38;;;17.10;96.70;;;;;;5057144;28;20033;-72
2024/03/20 12:35:12;;;;;;;20.00;7.90;;;17.10;96.50;;;;;;5051241;28;20036;-71